Webcam

2021/12/03 18:20 EBBR 031820Z 20014KT 8000 -DZ BKN009 04/02 Q1003 TEMPO 4000 -DZ BKN011

Webcam

--- Refresh now ---